Time;durP1;ratioP1;P1;durP2;ratioP2;P2;SDS_P1;SDS_P2;PMS_P1;PMS_P2;Temp;Humidity;BMP_temperature;BMP_pressure;BME280_temperature;BME280_humidity;BME280_pressure;Samples;Min_cycle;Max_cycle;Signal;HPM_P1;HPM_P2
2023/07/11 00:01:40;;;;;;;;;;;;;;;22.55;49.59;100673.72;4838490;29;6789;-71
2023/07/11 00:04:06;;;;;;;;;;;;;;;22.50;49.83;100670.25;4824983;29;6901;-71
2023/07/11 00:06:32;;;;;;;;;;;;;;;;;;4850290;29;7292;-71
2023/07/11 00:08:57;;;;;;;;;;;;;;;22.43;50.29;100664.13;4854595;29;6988;-71
2023/07/11 00:11:24;;;;;;;;;;;;;;;22.39;50.33;100654.50;4854457;29;6913;-71
2023/07/11 00:13:50;;;;;;;;;;;;;;;22.36;50.34;100654.50;4840936;29;7088;-71
2023/07/11 00:16:18;;;;;;;;;;;;;;;22.32;50.72;100649.28;4841392;29;6967;-71
2023/07/11 00:18:44;;;;;;;;;;;;;;;22.29;50.79;100651.88;4849117;29;7375;-71
2023/07/11 00:21:10;;;;;;;;;;;;;;;22.27;51.04;100652.75;4841879;29;6796;-71
2023/07/11 00:23:35;;;;;;;;;;;;;;;22.25;50.56;100652.75;4842461;29;7161;-71
2023/07/11 00:26:01;;;;;;;;;;;;;;;22.22;50.73;100649.25;4836925;29;6949;-71
2023/07/11 00:28:27;;;;;;;;;;;;;;;22.20;51.38;100651.84;4841625;29;6790;-71
2023/07/11 00:30:52;;;;;;;;;;;;;;;22.17;51.27;100646.63;4838318;29;7334;-71
2023/07/11 00:33:18;;;;;;;;;;;;;;;22.16;51.31;100642.25;4826214;29;7192;-71
2023/07/11 00:35:46;;;;;;;;;;;;;;;22.13;51.28;100637.03;4838052;29;6971;-71
2023/07/11 00:38:12;;;;;;;;;;;;;;;22.11;51.44;100643.97;4862398;29;7278;-71
2023/07/11 00:40:42;;;;;;;;;;;;;;;22.06;51.54;100642.22;4842190;29;7209;-71
2023/07/11 00:43:11;;;;;;;;;;;;;;;22.03;51.47;100634.41;4841369;29;6889;-71
2023/07/11 00:46:12;;;;;;;;;;;;;;;22.00;51.74;100639.56;4844491;29;6975;-71
2023/07/11 00:48:41;;;;;;;;;;;;;;;21.93;51.51;100632.59;4855130;29;6816;-71
2023/07/11 00:51:09;;;;;;;;;;;;;;;21.91;51.95;100639.53;4840089;29;6934;-71
2023/07/11 00:53:38;;;;;;;;;;;;;;;21.86;51.87;100625.59;4840330;29;6788;-71
2023/07/11 00:56:06;;;;;;;;;;;;;;;21.85;51.59;100631.69;4841202;29;7295;-70
2023/07/11 00:58:35;;;;;;;;;;;;;;;21.81;51.75;100630.81;4858541;29;6793;-71
2023/07/11 01:01:00;;;;;;;;;;;;;;;21.77;52.06;100624.69;4841867;29;7025;-71
2023/07/11 01:03:26;;;;;;;;;;;;;;;21.74;51.49;100627.31;4844902;29;6856;-71
2023/07/11 01:05:56;;;;;;;;;;;;;;;21.71;51.87;100626.41;4858554;29;6784;-71
2023/07/11 01:08:21;;;;;;;;;;;;;;;21.65;51.64;100622.84;4849558;29;6785;-71
2023/07/11 01:10:47;;;;;;;;;;;;;;;21.62;52.14;100628.06;4862341;29;6765;-71
2023/07/11 01:13:12;;;;;;;;;;;;;;;21.59;52.10;100621.94;4851180;29;7028;-71
2023/07/11 01:15:38;;;;;;;;;;;;;;;21.55;52.00;100621.06;4849530;29;6855;-71
2023/07/11 01:18:04;;;;;;;;;;;;;;;21.53;51.99;100621.91;4847652;29;6848;-71
2023/07/11 01:20:29;;;;;;;;;;;;;;;21.51;52.31;100619.31;4848148;29;6776;-71
2023/07/11 01:22:55;;;;;;;;;;;;;;;21.50;52.38;100613.19;4847745;29;7160;-71
2023/07/11 01:25:22;;;;;;;;;;;;;;;21.48;51.87;100609.72;4846016;29;6800;-71
2023/07/11 01:27:49;;;;;;;;;;;;;;;21.46;52.30;100607.97;4858758;29;7119;-71
2023/07/11 01:30:18;;;;;;;;;;;;;;;21.46;52.05;100607.97;4829673;29;6967;-71
2023/07/11 01:32:44;;;;;;;;;;;;;;;21.48;52.13;100606.22;4852895;29;7149;-71
2023/07/11 01:35:10;;;;;;;;;;;;;;;21.46;52.20;100608.84;4828300;29;6948;-71
2023/07/11 01:37:35;;;;;;;;;;;;;;;21.46;52.45;100606.25;4845744;29;6812;-71
2023/07/11 01:40:01;;;;;;;;;;;;;;;21.47;52.08;100601.88;4847204;29;6819;-71
2023/07/11 01:42:27;;;;;;;;;;;;;;;21.45;51.88;100601.88;4855869;29;6936;-70
2023/07/11 01:44:52;;;;;;;;;;;;;;;21.44;52.28;100601.88;4842838;29;7092;-71
2023/07/11 01:47:18;;;;;;;;;;;;;;;21.43;52.17;100593.16;4858432;29;6837;-70
2023/07/11 01:49:43;;;;;;;;;;;;;;;21.43;52.15;100600.13;4825634;29;6955;-71
2023/07/11 01:52:18;;;;;;;;;;;;;;;21.41;51.89;100584.47;4847965;29;7026;-71
2023/07/11 01:54:43;;;;;;;;;;;;;;;21.41;52.03;100591.44;4866514;29;6805;-71
2023/07/11 01:57:09;;;;;;;;;;;;;;;21.40;51.97;100579.25;4843381;29;6936;-71
2023/07/11 01:59:35;;;;;;;;;;;;;;;21.39;51.81;100580.97;4842795;29;6871;-71
2023/07/11 02:02:01;;;;;;;;;;;;;;;21.41;51.98;100581.84;4843344;29;6865;-70
2023/07/11 02:04:27;;;;;;;;;;;;;;;21.42;52.03;100583.59;4844105;29;6956;-71
2023/07/11 02:06:52;;;;;;;;;;;;;;;21.43;51.87;100574.91;4858494;29;7164;-72
2023/07/11 02:09:19;;;;;;;;;;;;;;;21.42;52.04;100575.78;4843128;29;6924;-72
2023/07/11 02:11:46;;;;;;;;;;;;;;;21.41;52.02;100576.66;4839380;29;6769;-73
2023/07/11 02:14:14;;;;;;;;;;;;;;;21.37;52.18;100564.47;4865127;29;6960;-72
2023/07/11 02:16:44;;;;;;;;;;;;;;;21.34;52.13;100569.63;4845537;29;7393;-72
2023/07/11 02:19:13;;;;;;;;;;;;;;;21.31;52.41;100567.03;4858572;29;6796;-72
2023/07/11 02:21:39;;;;;;;;;;;;;;;21.26;52.37;100560.94;4857647;29;6831;-72
2023/07/11 02:24:10;;;;;;;;;;;;;;;21.21;52.17;100556.53;4845790;29;6773;-72
2023/07/11 02:26:36;;;;;;;;;;;;;;;21.18;52.35;100564.34;4843799;29;6769;-72
2023/07/11 02:29:02;;;;;;;;;;;;;;;21.15;52.54;100555.63;4844363;29;7005;-72
2023/07/11 02:31:28;;;;;;;;;;;;;;;21.10;52.43;100550.41;4844379;29;9092;-73
2023/07/11 02:33:54;;;;;;;;;;;;;;;21.07;52.41;100558.19;4846942;29;6828;-72
2023/07/11 02:36:20;;;;;;;;;;;;;;;21.04;52.97;100551.22;4846583;29;6745;-72
2023/07/11 02:38:45;;;;;;;;;;;;;;;21.05;53.08;100557.28;4861136;29;6781;-72
2023/07/11 02:41:11;;;;;;;;;;;;;;;21.05;53.28;100549.47;4841395;29;7235;-72
2023/07/11 02:43:36;;;;;;;;;;;;;;;21.07;53.21;100547.78;4859879;29;6860;-72
2023/07/11 02:46:02;;;;;;;;;;;;;;;21.09;53.13;100543.44;4845908;29;7156;-72
2023/07/11 02:48:28;;;;;;;;;;;;;;;21.13;53.06;100544.34;4829147;29;6977;-70
2023/07/11 02:50:54;;;;;;;;;;;;;;;21.18;53.10;100553.03;4861567;29;7021;-72
2023/07/11 02:53:20;;;;;;;;;;;;;;;21.20;52.87;100543.53;4844608;29;6852;-70
2023/07/11 02:55:45;;;;;;;;;;;;;;;21.23;52.69;100541.78;4844273;29;6989;-71
2023/07/11 02:58:11;;;;;;;;;;;;;;;21.25;52.57;100543.56;4826253;29;7267;-71
2023/07/11 03:00:36;;;;;;;;;;;;;;;21.26;52.58;100540.09;4843745;29;6741;-69
2023/07/11 03:03:02;;;;;;;;;;;;;;;21.26;52.65;100533.13;4844849;29;6781;-70
2023/07/11 03:05:28;;;;;;;;;;;;;;;21.27;52.21;100537.47;4842732;29;6954;-70
2023/07/11 03:07:53;;;;;;;;;;;;;;;21.26;52.24;100530.50;4860047;29;6942;-70
2023/07/11 03:10:19;;;;;;;;;;;;;;;21.27;52.52;100534.00;4848345;29;6823;-69
2023/07/11 03:12:44;;;;;;;;;;;;;;;21.27;52.56;100527.03;4842041;29;6788;-70
2023/07/11 03:15:10;;;;;;;;;;;;;;;21.26;52.21;100529.66;4845666;29;6940;-70
2023/07/11 03:17:35;;;;;;;;;;;;;;;21.25;52.47;100520.09;4843894;29;7366;-70
2023/07/11 03:20:01;;;;;;;;;;;;;;;21.23;52.46;100523.53;4841143;29;6852;-70
2023/07/11 03:22:28;;;;;;;;;;;;;;;21.22;52.02;100520.94;4853674;29;7047;-70
2023/07/11 03:24:53;;;;;;;;;;;;;;;21.21;52.38;100527.03;4855343;29;6764;-69
2023/07/11 03:27:18;;;;;;;;;;;;;;;21.19;52.50;100527.00;4834078;29;6769;-70
2023/07/11 03:29:44;;;;;;;;;;;;;;;21.18;52.56;100521.75;4844979;29;6772;-70
2023/07/11 03:32:10;;;;;;;;;;;;;;;21.15;52.68;100525.25;4842442;29;6753;-69
2023/07/11 03:34:36;;;;;;;;;;;;;;;21.13;52.60;100518.28;4840597;29;6811;-69
2023/07/11 03:37:02;;;;;;;;;;;;;;;21.10;52.81;100521.72;4836303;29;6807;-69
2023/07/11 03:39:27;;;;;;;;;;;;;;;21.08;52.51;100523.47;4859771;29;6939;-68
2023/07/11 03:41:53;;;;;;;;;;;;;;;21.08;52.86;100520.84;4825360;29;7021;-70
2023/07/11 03:44:18;;;;;;;;;;;;;;;21.05;52.96;100519.09;4839330;29;6789;-69
2023/07/11 03:46:44;;;;;;;;;;;;;;;21.06;52.88;100522.59;4841663;29;6752;-69
2023/07/11 03:49:09;;;;;;;;;;;;;;;21.06;53.27;100518.22;4843444;29;7098;-70
2023/07/11 03:51:35;;;;;;;;;;;;;;;21.07;52.96;100513.91;4841642;29;6788;-70
2023/07/11 03:54:01;;;;;;;;;;;;;;;21.07;53.08;100513.91;4856433;29;6761;-68
2023/07/11 03:56:27;;;;;;;;;;;;;;;21.09;53.10;100513.03;4841894;29;6822;-68
2023/07/11 03:58:53;;;;;;;;;;;;;;;21.11;53.25;100520.88;4846855;29;7570;-69
2023/07/11 04:01:19;;;;;;;;;;;;;;;21.16;53.40;100515.69;4841824;29;7381;-70
2023/07/11 04:03:44;;;;;;;;;;;;;;;21.19;53.33;100513.97;4857457;29;6841;-69
2023/07/11 04:06:11;;;;;;;;;;;;;;;21.23;53.14;100507.91;4840165;29;6984;-71
2023/07/11 04:08:36;;;;;;;;;;;;;;;21.29;53.25;100508.81;4852085;29;9380;-69
2023/07/11 04:11:02;;;;;;;;;;;;;;;21.33;52.80;100501.00;4855897;29;7354;-71
2023/07/11 04:13:27;;;;;;;;;;;;;;;21.37;52.92;100502.75;4855455;29;6763;-69
2023/07/11 04:15:53;;;;;;;;;;;;;;;21.42;53.04;100494.09;4858745;29;7142;-70
2023/07/11 04:18:18;;;;;;;;;;;;;;;21.47;52.86;100500.19;4840830;29;6974;-69
2023/07/11 04:20:45;;;;;;;;;;;;;;;21.54;52.82;100493.31;4858807;29;7215;-71
2023/07/11 04:23:14;;;;;;;;;;;;;;;21.61;52.94;100497.66;4859109;29;6983;-71
2023/07/11 04:25:39;;;;;;;;;;;;;;;21.76;53.29;100484.72;4842274;29;6809;-68
2023/07/11 04:28:06;;;;;;;;;;;;;;;22.04;53.29;100484.78;4853882;29;6773;-70
2023/07/11 04:30:32;;;;;;;;;;;;;;;22.36;53.38;100480.47;4842877;29;6777;-69
2023/07/11 04:32:58;;;;;;;;;;;;;;;22.70;53.85;100479.63;4841071;29;6941;-69
2023/07/11 04:35:23;;;;;;;;;;;;;;;23.04;53.43;100474.31;4856095;29;7098;-71
2023/07/11 04:37:49;;;;;;;;;;;;;;;23.41;52.86;100482.09;4839509;29;6776;-70
2023/07/11 04:40:15;;;;;;;;;;;;;;;23.78;52.64;100482.78;4845758;29;7107;-70
2023/07/11 04:42:41;;;;;;;;;;;;;;;24.14;52.54;100475.59;4841905;29;6844;-71
2023/07/11 04:45:08;;;;;;;;;;;;;;;24.49;52.49;100466.59;4842546;29;6769;-69
2023/07/11 04:47:34;;;;;;;;;;;;;;;24.85;52.00;100470.69;4862204;29;6871;-68
2023/07/11 04:50:00;;;;;;;;;;;;;;;25.16;51.14;100467.72;4843586;29;6836;-69
2023/07/11 04:52:26;;;;;;;;;;;;;;;25.45;50.63;100461.25;4840908;29;6776;-71
2023/07/11 04:54:52;;;;;;;;;;;;;;;25.74;49.91;100466.16;4843441;29;6857;-71
2023/07/11 04:57:18;;;;;;;;;;;;;;;26.00;49.40;100462.25;4836906;29;8200;-70
2023/07/11 04:59:43;;;;;;;;;;;;;;;26.28;49.72;100455.75;4843867;29;7972;-71
2023/07/11 05:02:09;;;;;;;;;;;;;;;26.55;48.99;100454.41;4858842;29;6780;-69
2023/07/11 05:04:34;;;;;;;;;;;;;;;26.80;48.54;100453.09;4853333;29;6814;-69
2023/07/11 05:07:00;;;;;;;;;;;;;;;27.05;48.06;100452.66;4844116;29;6780;-70
2023/07/11 05:09:29;;;;;;;;;;;;;;;27.30;47.55;100456.50;4845897;29;6925;-68
2023/07/11 05:11:55;;;;;;;;;;;;;;;27.55;47.39;100457.78;4842460;29;7119;-69
2023/07/11 05:14:20;;;;;;;;;;;;;;;27.75;47.36;100444.19;4840356;29;7401;-68
2023/07/11 05:16:46;;;;;;;;;;;;;;;28.02;46.99;100446.19;4841315;29;6864;-70
2023/07/11 05:19:11;;;;;;;;;;;;;;;28.23;46.67;100436.94;4854041;29;6843;-68
2023/07/11 05:21:37;;;;;;;;;;;;;;;28.45;46.39;100428.47;4852737;29;7389;-69
2023/07/11 05:24:03;;;;;;;;;;;;;;;28.66;45.70;100434.94;4838303;29;6753;-69
2023/07/11 05:26:29;;;;;;;;;;;;;;;28.83;45.12;100430.13;4840361;29;6822;-68
2023/07/11 05:28:55;;;;;;;;;;;;;;;29.02;44.25;100426.09;4839058;29;6840;-70
2023/07/11 05:31:21;;;;;;;;;;;;;;;29.19;43.95;100423.81;4839244;29;6768;-72
2023/07/11 05:33:46;;;;;;;;;;;;;;;29.30;43.08;100420.00;4837646;29;6999;-68
2023/07/11 05:38:53;;;;;;;;;;;;;;;29.50;42.93;100419.41;4844337;29;6789;-71
2023/07/11 05:41:20;;;;;;;;;;;;;;;29.59;41.38;100413.00;4857741;29;6777;-71
2023/07/11 05:43:46;;;;;;;;;;;;;;;29.65;41.81;100405.72;4825502;29;7287;-68
2023/07/11 05:46:11;;;;;;;;;;;;;;;29.71;40.99;100407.31;4843684;29;6953;-69
2023/07/11 05:48:37;;;;;;;;;;;;;;;29.73;40.24;100405.47;4857065;29;7095;-70
2023/07/11 05:51:11;;;;;;;;;;;;;;;29.74;39.40;100403.72;4825339;29;7038;-69
2023/07/11 05:53:37;;;;;;;;;;;;;;;29.67;39.62;100403.06;4831951;29;7064;-70
2023/07/11 05:56:03;;;;;;;;;;;;;;;29.60;39.02;100404.16;4845187;29;6953;-69
2023/07/11 05:58:31;;;;;;;;;;;;;;;29.48;38.53;100403.63;4847366;29;6892;-68
2023/07/11 06:00:57;;;;;;;;;;;;;;;29.35;38.86;100404.88;4856905;29;6996;-68
2023/07/11 06:03:25;;;;;;;;;;;;;;;29.18;37.88;100400.09;4860831;29;6862;-69
2023/07/11 06:05:51;;;;;;;;;;;;;;;28.96;38.30;100396.31;4848273;29;7375;-69
2023/07/11 06:08:17;;;;;;;;;;;;;;;28.77;38.28;100393.31;4862290;29;8052;-69
2023/07/11 06:10:43;;;;;;;;;;;;;;;28.59;38.55;100393.84;4828303;29;6956;-70
2023/07/11 06:13:14;;;;;;;;;;;;;;;28.40;39.29;100395.22;4862280;29;6841;-69
2023/07/11 06:15:40;;;;;;;;;;;;;;;28.27;39.20;100389.41;4845586;29;7076;-68
2023/07/11 06:18:06;;;;;;;;;;;;;;;28.16;38.95;100390.53;4842110;29;6979;-69
2023/07/11 06:20:31;;;;;;;;;;;;;;;28.05;38.89;100383.78;4867857;29;7184;-70
2023/07/11 06:22:57;;;;;;;;;;;;;;;27.99;39.73;100384.78;4842828;29;7016;-69
2023/07/11 06:25:22;;;;;;;;;;;;;;;27.92;39.75;100380.56;4827904;29;6841;-68
2023/07/11 06:27:48;;;;;;;;;;;;;;;27.89;39.44;100378.03;4858636;29;6784;-70
2023/07/11 06:30:14;;;;;;;;;;;;;;;27.85;39.38;100371.97;4843296;29;7160;-68
2023/07/11 06:32:39;;;;;;;;;;;;;;;27.85;39.06;100363.19;4829883;29;7292;-70
2023/07/11 06:35:05;;;;;;;;;;;;;;;27.85;39.55;100369.34;4847278;29;7136;-69
2023/07/11 06:37:31;;;;;;;;;;;;;;;27.88;39.42;100362.25;4856484;29;7273;-69
2023/07/11 06:39:56;;;;;;;;;;;;;;;27.93;39.44;100363.03;4846820;29;6824;-69
2023/07/11 06:42:22;;;;;;;;;;;;;;;27.97;39.57;100364.66;4846283;29;6796;-68
2023/07/11 06:44:47;;;;;;;;;;;;;;;28.03;39.69;100367.16;4844197;29;6761;-69
2023/07/11 06:47:13;;;;;;;;;;;;;;;28.09;39.66;100359.06;4845776;29;6975;-67
2023/07/11 06:49:38;;;;;;;;;;;;;;;28.18;39.39;100359.75;4844744;29;6957;-71
2023/07/11 06:52:04;;;;;;;;;;;;;;;28.25;39.23;100356.97;4859423;29;6756;-68
2023/07/11 06:54:29;;;;;;;;;;;;;;;28.34;39.09;100361.09;4845989;29;7189;-68
2023/07/11 06:56:58;;;;;;;;;;;;;;;28.42;39.21;100356.50;4843207;29;6951;-68
2023/07/11 06:59:24;;;;;;;;;;;;;;;28.51;39.34;100359.78;4865535;29;7215;-67
2023/07/11 07:01:49;;;;;;;;;;;;;;;28.62;39.71;100356.84;4866183;29;6780;-67
2023/07/11 07:04:15;;;;;;;;;;;;;;;28.72;39.72;100355.66;4825893;29;7338;-67
2023/07/11 07:06:41;;;;;;;;;;;;;;;28.87;39.58;100354.38;4860869;29;6772;-68
2023/07/11 07:09:07;;;;;;;;;;;;;;;29.08;40.08;100352.06;4831414;29;6965;-68
2023/07/11 07:11:35;;;;;;;;;;;;;;;29.37;39.27;100356.41;4860780;29;7411;-67
2023/07/11 07:14:01;;;;;;;;;;;;;;;29.69;39.10;100350.19;4860590;29;6805;-68
2023/07/11 07:16:28;;;;;;;;;;;;;;;30.02;38.97;100347.34;4846711;29;6950;-70
2023/07/11 07:18:54;;;;;;;;;;;;;;;30.33;38.83;100344.53;4863552;29;7144;-70
2023/07/11 07:21:20;;;;;;;;;;;;;;;30.64;37.77;100345.16;4856881;29;6948;-70
2023/07/11 07:23:45;;;;;;;;;;;;;;;30.92;37.51;100345.97;4840108;29;6943;-68
2023/07/11 07:26:11;;;;;;;;;;;;;;;31.22;37.82;100345.69;4841728;29;6757;-71
2023/07/11 07:28:37;;;;;;;;;;;;;;;31.47;36.83;100344.72;4842344;29;7237;-70
2023/07/11 07:31:07;;;;;;;;;;;;;;;31.69;36.74;100342.94;4828443;29;6857;-69
2023/07/11 07:33:34;;;;;;;;;;;;;;;31.95;36.73;100335.69;4845945;29;6804;-70
2023/07/11 07:36:05;;;;;;;;;;;;;;;32.14;36.24;100341.06;4839391;29;6793;-72
2023/07/11 07:38:32;;;;;;;;;;;;;;;32.31;35.89;100341.25;4857821;29;6981;-70
2023/07/11 07:40:59;;;;;;;;;;;;;;;32.54;35.79;100338.47;4844225;29;7037;-72
2023/07/11 07:43:26;;;;;;;;;;;;;;;32.85;35.69;100335.34;4827893;29;7116;-71
2023/07/11 07:45:53;;;;;;;;;;;;;;;33.20;35.50;100325.75;4853935;29;6809;-72
2023/07/11 07:48:19;;;;;;;;;;;;;;;33.54;35.21;100333.88;4843184;29;7035;-71
2023/07/11 07:50:45;;;;;;;;;;;;;;;33.77;34.21;100318.56;4826977;29;7128;-69
2023/07/11 07:53:12;;;;;;;;;;;;;;;34.00;33.41;100327.22;4842950;29;6797;-69
2023/07/11 07:55:38;;;;;;;;;;;;;;;34.15;33.54;100325.53;4841213;29;7245;-70
2023/07/11 07:58:04;;;;;;;;;;;;;;;34.32;32.66;100324.66;4824731;29;7127;-70
2023/07/11 08:00:29;;;;;;;;;;;;;;;34.47;32.05;100328.28;4843281;29;6829;-69
2023/07/11 08:02:55;;;;;;;;;;;;;;;34.67;31.69;100326.38;4842496;29;6753;-71
2023/07/11 08:05:21;;;;;;;;;;;;;;;34.81;31.76;100326.44;4841466;29;6777;-69
2023/07/11 08:07:46;;;;;;;;;;;;;;;34.81;30.67;100330.94;4840259;29;7353;-69
2023/07/11 08:10:12;;;;;;;;;;;;;;;34.63;30.23;100333.66;4858184;29;7242;-70
2023/07/11 08:12:37;;;;;;;;;;;;;;;34.36;30.45;100328.84;4856802;29;7432;-70
2023/07/11 08:15:03;;;;;;;;;;;;;;;34.14;30.30;100332.66;4839047;29;6765;-72
2023/07/11 08:17:30;;;;;;;;;;;;;;;33.93;30.16;100330.13;4818665;29;7258;-70
2023/07/11 08:19:55;;;;;;;;;;;;;;;33.70;30.68;100327.78;4843022;29;7063;-72
2023/07/11 08:22:21;;;;;;;;;;;;;;;33.56;31.02;100329.34;4847102;29;6765;-70
2023/07/11 08:24:47;;;;;;;;;;;;;;;33.51;31.28;100331.34;4858655;29;7589;-70
2023/07/11 08:27:12;;;;;;;;;;;;;;;33.58;31.29;100318.66;4844932;29;6889;-70
2023/07/11 08:29:41;;;;;;;;;;;;;;;33.59;31.40;100318.56;4842218;29;7515;-71
2023/07/11 08:32:07;;;;;;;;;;;;;;;33.45;30.90;100319.22;4841453;29;7038;-72
2023/07/11 08:34:32;;;;;;;;;;;;;;;33.34;31.50;100317.09;4862991;29;7311;-71
2023/07/11 08:36:58;;;;;;;;;;;;;;;33.27;31.13;100318.34;4862659;29;6769;-70
2023/07/11 08:39:23;;;;;;;;;;;;;;;33.27;31.59;100313.03;4843156;29;6997;-70
2023/07/11 08:41:52;;;;;;;;;;;;;;;33.30;31.58;100304.91;4844018;29;6752;-70
2023/07/11 08:44:26;;;;;;;;;;;;;;;33.39;30.95;100300.94;4850131;29;7100;-71
2023/07/11 08:47:00;;;;;;;;;;;;;;;33.62;31.19;100298.94;4845007;29;7225;-70
2023/07/11 08:49:35;;;;;;;;;;;;;;;33.94;31.26;100299.09;4866105;29;6789;-70
2023/07/11 08:52:01;;;;;;;;;;;;;;;34.28;31.19;100299.13;4864519;29;6957;-70
2023/07/11 08:54:40;;;;;;;;;;;;;;;34.72;30.59;100295.91;4827495;29;6952;-70
2023/07/11 08:57:09;;;;;;;;;;;;;;;35.27;30.21;100283.09;4839868;29;7293;-70
2023/07/11 08:59:48;;;;;;;;;;;;;;;35.90;29.27;100276.81;4839352;29;6835;-70
2023/07/11 09:02:32;;;;;;;;;;;;;;;36.52;28.58;100283.72;4840501;29;7018;-71
2023/07/11 09:04:59;;;;;;;;;;;;;;;36.93;27.02;100277.53;4841758;29;6796;-70
2023/07/11 09:07:40;;;;;;;;;;;;;;;37.31;26.39;100269.78;4858381;29;6785;-71
2023/07/11 09:10:29;;;;;;;;;;;;;;;37.71;25.43;100266.22;4840071;29;7078;-71
2023/07/11 09:13:06;;;;;;;;;;;;;;;37.93;25.01;100262.91;4841156;29;6772;-70
2023/07/11 09:15:46;;;;;;;;;;;;;;;38.31;24.97;100266.56;4846136;29;6866;-70
2023/07/11 09:18:29;;;;;;;;;;;;;;;38.81;24.09;100255.81;4844485;29;6792;-72
2023/07/11 09:21:08;;;;;;;;;;;;;;;38.99;22.72;100247.44;4858688;29;7234;-71
2023/07/11 09:23:53;;;;;;;;;;;;;;;38.97;23.09;100258.28;4838783;29;6964;-72
2023/07/11 09:26:27;;;;;;;;;;;;;;;39.13;23.21;100255.28;4857010;29;6868;-68
2023/07/11 09:29:00;;;;;;;;;;;;;;;39.36;23.20;100255.34;4869321;29;7000;-67
2023/07/11 09:31:28;;;;;;;;;;;;;;;39.72;23.25;100250.84;4845215;29;7751;-67
2023/07/11 09:33:58;;;;;;;;;;;;;;;40.13;22.34;100243.22;4830504;29;6956;-69
2023/07/11 09:36:33;;;;;;;;;;;;;;;40.28;22.08;100240.25;4842342;29;6962;-69
2023/07/11 09:39:22;;;;;;;;;;;;;;;40.36;22.07;100239.66;4845625;29;6800;-68
2023/07/11 09:41:55;;;;;;;;;;;;;;;40.60;21.82;100244.03;4833693;29;6873;-69
2023/07/11 09:44:20;;;;;;;;;;;;;;;40.87;21.71;100234.69;4867520;29;7100;-69
2023/07/11 09:46:46;;;;;;;;;;;;;;;41.14;21.28;100230.63;4846774;29;6836;-69
2023/07/11 09:49:20;;;;;;;;;;;;;;;41.18;20.94;100232.94;4845287;29;6917;-69
2023/07/11 09:51:53;;;;;;;;;;;;;;;40.86;20.25;100235.69;4851020;29;7291;-70
2023/07/11 09:54:27;;;;;;;;;;;;;;;40.36;20.51;100236.97;4860692;29;6796;-70
2023/07/11 09:56:55;;;;;;;;;;;;;;;40.24;21.10;100239.66;4844399;29;6856;-69
2023/07/11 09:59:21;;;;;;;;;;;;;;;40.44;21.18;100239.91;4864960;29;6945;-68
2023/07/11 10:01:53;;;;;;;;;;;;;;;40.75;21.04;100225.78;4846554;29;6817;-68
2023/07/11 10:04:25;;;;;;;;;;;;;;;41.03;20.83;100228.88;4866255;29;6812;-68
2023/07/11 10:07:02;;;;;;;;;;;;;;;41.03;20.34;100232.41;4861946;29;6784;-68
2023/07/11 10:09:30;;;;;;;;;;;;;;;40.99;20.39;100233.66;4845165;29;6872;-69
2023/07/11 10:12:03;;;;;;;;;;;;;;;41.01;20.43;100225.47;4842882;29;6800;-68
2023/07/11 10:14:36;;;;;;;;;;;;;;;41.20;20.71;100219.38;4846452;29;6796;-68
2023/07/11 10:17:16;;;;;;;;;;;;;;;41.49;20.44;100216.94;4864354;29;6801;-68
2023/07/11 10:19:41;;;;;;;;;;;;;;;41.80;19.83;100217.94;4844465;29;6773;-68
2023/07/11 10:22:16;;;;;;;;;;;;;;;42.17;19.70;100210.16;4862185;29;6764;-69
2023/07/11 10:24:42;;;;;;;;;;;;;;;42.56;20.01;100208.56;4866290;29;6804;-68
2023/07/11 10:27:13;;;;;;;;;;;;;;;43.00;19.86;100202.78;4845694;29;7092;-69
2023/07/11 10:29:54;;;;;;;;;;;;;;;43.24;19.50;100207.72;4844595;29;6797;-69
2023/07/11 10:32:43;;;;;;;;;;;;;;;43.24;19.27;100210.41;4827694;29;6963;-69
2023/07/11 10:35:14;;;;;;;;;;;;;;;43.27;19.49;100207.44;4844310;29;6871;-70
2023/07/11 10:37:49;;;;;;;;;;;;;;;43.35;19.00;100211.25;4846247;29;6812;-68
2023/07/11 10:40:26;;;;;;;;;;;;;;;43.30;18.58;100214.38;4846176;29;6977;-69
2023/07/11 10:43:04;;;;;;;;;;;;;;;43.23;18.80;100197.94;4864830;29;6840;-69
2023/07/11 10:45:39;;;;;;;;;;;;;;;43.29;18.84;100197.34;4844893;29;7176;-68
2023/07/11 10:48:24;;;;;;;;;;;;;;;43.13;18.63;100191.72;4865633;29;8203;-70
2023/07/11 10:50:55;;;;;;;;;;;;;;;42.93;18.96;100189.03;4844366;29;6813;-70
2023/07/11 10:53:43;;;;;;;;;;;;;;;42.89;19.37;100182.22;4866310;29;7468;-68
2023/07/11 10:56:19;;;;;;;;;;;;;;;42.95;19.32;100184.34;4849098;29;7366;-70
2023/07/11 10:58:45;;;;;;;;;;;;;;;43.09;19.44;100182.22;4859619;29;7025;-68
2023/07/11 11:01:28;;;;;;;;;;;;;;;43.35;19.07;100181.59;4844056;29;7264;-67
2023/07/11 11:04:06;;;;;;;;;;;;;;;43.49;19.29;100175.75;4863817;29;6792;-71
2023/07/11 11:06:44;;;;;;;;;;;;;;;43.68;19.43;100163.19;4840054;29;6984;-69
2023/07/11 11:09:15;;;;;;;;;;;;;;;43.91;19.00;100165.50;4843157;29;6834;-68
2023/07/11 11:11:52;;;;;;;;;;;;;;;43.91;18.96;100160.97;4859538;29;6789;-70
2023/07/11 11:14:42;;;;;;;;;;;;;;;43.95;18.68;100164.22;4842892;29;7013;-68
2023/07/11 11:17:26;;;;;;;;;;;;;;;43.81;18.33;100152.09;4845032;29;6963;-68
2023/07/11 11:20:22;;;;;;;;;;;;;;;43.74;18.50;100154.47;4827291;29;6991;-67
2023/07/11 11:23:07;;;;;;;;;;;;;;;43.86;18.25;100138.16;4863613;29;6848;-70
2023/07/11 11:25:43;;;;;;;;;;;;;;;43.74;18.08;100134.75;4828081;29;7287;-68
2023/07/11 11:28:31;;;;;;;;;;;;;;;43.43;18.27;100144.84;4858218;29;6784;-70
2023/07/11 11:31:10;;;;;;;;;;;;;;;43.26;18.72;100130.22;4844298;29;6809;-69
2023/07/11 11:34:05;;;;;;;;;;;;;;;43.23;19.06;100135.09;4865085;29;6988;-69
2023/07/11 11:37:12;;;;;;;;;;;;;;;43.32;19.47;100133.34;4844352;29;6816;-67
2023/07/11 11:39:54;;;;;;;;;;;;;;;43.41;18.92;100119.88;4840140;29;6793;-68
2023/07/11 11:42:30;;;;;;;;;;;;;;;43.59;19.17;100104.75;4862638;29;7217;-71
2023/07/11 11:45:16;;;;;;;;;;;;;;;43.82;19.55;100111.44;4842129;29;7005;-69
2023/07/11 11:47:43;;;;;;;;;;;;;;;44.09;19.14;100115.13;4837355;29;6976;-69
2023/07/11 11:50:18;;;;;;;;;;;;;;;44.29;19.04;100106.91;4843194;29;6908;-68
2023/07/11 11:52:44;;;;;;;;;;;;;;;44.39;18.64;100104.13;4837630;29;7142;-69
2023/07/11 11:55:31;;;;;;;;;;;;;;;44.61;18.62;100104.66;4851616;29;6777;-71
2023/07/11 11:57:57;;;;;;;;;;;;;;;44.73;18.60;100103.41;4840102;29;6804;-71
2023/07/11 12:00:45;;;;;;;;;;;;;;;44.73;18.38;100103.41;4844914;29;7000;-71
2023/07/11 12:03:32;;;;;;;;;;;;;;;44.78;18.83;100092.13;4858383;29;7145;-71
2023/07/11 12:06:03;;;;;;;;;;;;;;;44.84;18.42;100096.91;4847320;29;6868;-71
2023/07/11 12:08:29;;;;;;;;;;;;;;;44.85;18.17;100086.94;4858583;29;7240;-70
2023/07/11 12:11:11;;;;;;;;;;;;;;;44.98;18.11;100086.53;4856595;29;6949;-70
2023/07/11 12:13:43;;;;;;;;;;;;;;;45.10;18.27;100087.94;4842553;29;7149;-71
2023/07/11 12:16:21;;;;;;;;;;;;;;;45.15;17.70;100079.34;4840971;29;6873;-70
2023/07/11 12:18:51;;;;;;;;;;;;;;;45.25;18.13;100074.69;4846289;29;6836;-71
2023/07/11 12:21:31;;;;;;;;;;;;;;;45.32;18.00;100069.50;4860131;29;6876;-71
2023/07/11 12:24:20;;;;;;;;;;;;;;;45.41;18.20;100060.44;4857956;29;7396;-71
2023/07/11 12:26:46;;;;;;;;;;;;;;;45.52;17.76;100063.84;4844859;29;6866;-71
2023/07/11 12:29:38;;;;;;;;;;;;;;;45.62;17.88;100059.13;4858927;29;7068;-71
2023/07/11 12:32:31;;;;;;;;;;;;;;;45.75;17.67;100056.78;4845163;29;6807;-71
2023/07/11 12:35:03;;;;;;;;;;;;;;;45.73;17.20;100049.84;4845151;29;7048;-70
2023/07/11 12:37:37;;;;;;;;;;;;;;;45.42;17.24;100059.41;4844326;29;6813;-71
2023/07/11 12:40:18;;;;;;;;;;;;;;;45.18;17.18;100047.44;4844940;29;6954;-70
2023/07/11 12:42:55;;;;;;;;;;;;;;;45.00;17.76;100043.97;4842411;29;7147;-71
2023/07/11 12:45:23;;;;;;;;;;;;;;;44.89;17.53;100051.31;4858175;29;7234;-71
2023/07/11 12:48:03;;;;;;;;;;;;;;;44.74;17.69;100055.63;4838369;29;6789;-71
2023/07/11 12:50:40;;;;;;;;;;;;;;;44.75;17.71;100035.72;4842922;29;6856;-71
2023/07/11 12:53:06;;;;;;;;;;;;;;;44.80;17.75;100038.75;4845497;29;6792;-71
2023/07/11 12:55:31;;;;;;;;;;;;;;;44.76;17.40;100030.13;4845502;29;6929;-71
2023/07/11 12:57:57;;;;;;;;;;;;;;;44.54;17.48;100029.63;4861404;29;6786;-70
2023/07/11 13:00:26;;;;;;;;;;;;;;;44.42;17.88;100030.03;4844212;29;7054;-71
2023/07/11 13:02:55;;;;;;;;;;;;;;;44.45;17.77;100022.47;4844094;29;6879;-71